sensor_id;sensor_type;location;lat;lon;timestamp;P1;durP1;ratioP1;P2;durP2;ratioP2
46713;SDS011;32445;51.376;10.874;2023-05-17T00:02:01;3.80;;;1.55;;
46713;SDS011;32445;51.376;10.874;2023-05-17T00:05:02;4.95;;;2.50;;
46713;SDS011;32445;51.376;10.874;2023-05-17T00:08:02;4.22;;;1.83;;
46713;SDS011;32445;51.376;10.874;2023-05-17T00:11:03;5.30;;;1.90;;
46713;SDS011;32445;51.376;10.874;2023-05-17T00:14:03;4.85;;;1.70;;
46713;SDS011;32445;51.376;10.874;2023-05-17T00:17:03;3.55;;;1.80;;
46713;SDS011;32445;51.376;10.874;2023-05-17T00:20:04;3.70;;;2.05;;
46713;SDS011;32445;51.376;10.874;2023-05-17T00:23:05;3.50;;;1.97;;
46713;SDS011;32445;51.376;10.874;2023-05-17T00:26:06;5.97;;;1.70;;
46713;SDS011;32445;51.376;10.874;2023-05-17T00:29:06;2.67;;;1.75;;
46713;SDS011;32445;51.376;10.874;2023-05-17T00:32:06;4.05;;;2.28;;
46713;SDS011;32445;51.376;10.874;2023-05-17T00:35:07;6.97;;;2.53;;
46713;SDS011;32445;51.376;10.874;2023-05-17T00:38:07;6.40;;;2.45;;
46713;SDS011;32445;51.376;10.874;2023-05-17T00:41:07;2.85;;;1.88;;
46713;SDS011;32445;51.376;10.874;2023-05-17T00:44:08;2.88;;;2.10;;
46713;SDS011;32445;51.376;10.874;2023-05-17T00:47:08;3.08;;;2.63;;
46713;SDS011;32445;51.376;10.874;2023-05-17T00:50:08;4.90;;;2.88;;
46713;SDS011;32445;51.376;10.874;2023-05-17T00:53:10;7.28;;;2.60;;
46713;SDS011;32445;51.376;10.874;2023-05-17T00:56:15;4.35;;;1.85;;
46713;SDS011;32445;51.376;10.874;2023-05-17T00:59:15;5.97;;;2.30;;
46713;SDS011;32445;51.376;10.874;2023-05-17T01:02:16;5.05;;;2.15;;
46713;SDS011;32445;51.376;10.874;2023-05-17T01:05:16;6.72;;;1.80;;
46713;SDS011;32445;51.376;10.874;2023-05-17T01:08:17;7.13;;;2.67;;
46713;SDS011;32445;51.376;10.874;2023-05-17T01:11:22;5.50;;;2.83;;
46713;SDS011;32445;51.376;10.874;2023-05-17T01:14:40;3.22;;;1.80;;
46713;SDS011;32445;51.376;10.874;2023-05-17T01:20:55;3.33;;;2.47;;
46713;SDS011;32445;51.376;10.874;2023-05-17T01:24:15;5.68;;;2.65;;
46713;SDS011;32445;51.376;10.874;2023-05-17T01:27:26;6.05;;;2.05;;
46713;SDS011;32445;51.376;10.874;2023-05-17T01:30:27;5.82;;;2.92;;
46713;SDS011;32445;51.376;10.874;2023-05-17T01:33:31;3.47;;;2.38;;
46713;SDS011;32445;51.376;10.874;2023-05-17T01:36:31;4.43;;;3.03;;
46713;SDS011;32445;51.376;10.874;2023-05-17T01:39:31;4.68;;;2.90;;
46713;SDS011;32445;51.376;10.874;2023-05-17T01:42:32;8.45;;;3.08;;
46713;SDS011;32445;51.376;10.874;2023-05-17T01:45:56;3.13;;;2.28;;
46713;SDS011;32445;51.376;10.874;2023-05-17T01:49:11;5.68;;;2.83;;
46713;SDS011;32445;51.376;10.874;2023-05-17T01:55:52;3.53;;;2.45;;
46713;SDS011;32445;51.376;10.874;2023-05-17T01:58:55;5.15;;;2.88;;
46713;SDS011;32445;51.376;10.874;2023-05-17T02:01:58;4.55;;;2.75;;
46713;SDS011;32445;51.376;10.874;2023-05-17T02:05:05;3.78;;;3.15;;
46713;SDS011;32445;51.376;10.874;2023-05-17T02:08:05;5.15;;;3.10;;
46713;SDS011;32445;51.376;10.874;2023-05-17T02:11:06;6.18;;;3.08;;
46713;SDS011;32445;51.376;10.874;2023-05-17T02:14:06;9.05;;;3.15;;
46713;SDS011;32445;51.376;10.874;2023-05-17T02:17:06;7.03;;;3.00;;
46713;SDS011;32445;51.376;10.874;2023-05-17T02:20:07;3.38;;;3.08;;
46713;SDS011;32445;51.376;10.874;2023-05-17T02:23:08;3.47;;;3.13;;
46713;SDS011;32445;51.376;10.874;2023-05-17T02:26:08;3.47;;;3.17;;
46713;SDS011;32445;51.376;10.874;2023-05-17T02:29:08;7.28;;;3.42;;
46713;SDS011;32445;51.376;10.874;2023-05-17T02:32:11;4.65;;;2.53;;
46713;SDS011;32445;51.376;10.874;2023-05-17T02:35:12;5.38;;;2.75;;
46713;SDS011;32445;51.376;10.874;2023-05-17T02:38:12;3.33;;;3.03;;
46713;SDS011;32445;51.376;10.874;2023-05-17T02:41:12;5.40;;;2.85;;
46713;SDS011;32445;51.376;10.874;2023-05-17T02:44:13;7.03;;;3.80;;
46713;SDS011;32445;51.376;10.874;2023-05-17T02:47:13;7.07;;;3.20;;
46713;SDS011;32445;51.376;10.874;2023-05-17T02:50:13;3.75;;;3.00;;
46713;SDS011;32445;51.376;10.874;2023-05-17T02:53:14;5.90;;;4.35;;
46713;SDS011;32445;51.376;10.874;2023-05-17T02:56:14;4.30;;;2.88;;
46713;SDS011;32445;51.376;10.874;2023-05-17T02:59:14;6.85;;;3.10;;
46713;SDS011;32445;51.376;10.874;2023-05-17T03:02:14;3.85;;;3.33;;
46713;SDS011;32445;51.376;10.874;2023-05-17T03:05:15;5.95;;;3.75;;
46713;SDS011;32445;51.376;10.874;2023-05-17T03:08:15;4.90;;;3.53;;
46713;SDS011;32445;51.376;10.874;2023-05-17T03:11:15;3.95;;;2.95;;
46713;SDS011;32445;51.376;10.874;2023-05-17T03:14:16;4.18;;;3.25;;
46713;SDS011;32445;51.376;10.874;2023-05-17T03:17:16;5.78;;;3.30;;
46713;SDS011;32445;51.376;10.874;2023-05-17T03:20:16;3.20;;;2.78;;
46713;SDS011;32445;51.376;10.874;2023-05-17T03:23:17;14.90;;;3.47;;
46713;SDS011;32445;51.376;10.874;2023-05-17T03:26:18;5.57;;;3.50;;
46713;SDS011;32445;51.376;10.874;2023-05-17T03:29:18;4.47;;;4.07;;
46713;SDS011;32445;51.376;10.874;2023-05-17T03:32:19;4.68;;;4.25;;
46713;SDS011;32445;51.376;10.874;2023-05-17T03:35:19;6.50;;;5.75;;
46713;SDS011;32445;51.376;10.874;2023-05-17T03:38:19;4.53;;;3.90;;
46713;SDS011;32445;51.376;10.874;2023-05-17T03:41:20;6.68;;;4.03;;
46713;SDS011;32445;51.376;10.874;2023-05-17T03:44:21;9.80;;;4.45;;
46713;SDS011;32445;51.376;10.874;2023-05-17T03:47:22;5.38;;;3.92;;
46713;SDS011;32445;51.376;10.874;2023-05-17T03:50:22;6.78;;;3.35;;
46713;SDS011;32445;51.376;10.874;2023-05-17T03:53:23;6.25;;;4.25;;
46713;SDS011;32445;51.376;10.874;2023-05-17T03:56:23;4.38;;;3.40;;
46713;SDS011;32445;51.376;10.874;2023-05-17T03:59:23;3.28;;;2.78;;
46713;SDS011;32445;51.376;10.874;2023-05-17T04:02:24;10.77;;;3.80;;
46713;SDS011;32445;51.376;10.874;2023-05-17T04:05:24;5.57;;;3.15;;
46713;SDS011;32445;51.376;10.874;2023-05-17T04:08:25;4.15;;;3.28;;
46713;SDS011;32445;51.376;10.874;2023-05-17T04:11:25;3.78;;;3.00;;
46713;SDS011;32445;51.376;10.874;2023-05-17T04:14:26;5.40;;;3.53;;
46713;SDS011;32445;51.376;10.874;2023-05-17T04:17:26;6.25;;;4.00;;
46713;SDS011;32445;51.376;10.874;2023-05-17T04:20:27;7.68;;;3.15;;
46713;SDS011;32445;51.376;10.874;2023-05-17T04:23:27;6.72;;;3.95;;
46713;SDS011;32445;51.376;10.874;2023-05-17T04:26:28;5.53;;;3.85;;
46713;SDS011;32445;51.376;10.874;2023-05-17T04:29:29;7.03;;;4.25;;
46713;SDS011;32445;51.376;10.874;2023-05-17T04:32:29;4.63;;;3.45;;
46713;SDS011;32445;51.376;10.874;2023-05-17T04:35:30;5.00;;;4.25;;
46713;SDS011;32445;51.376;10.874;2023-05-17T04:38:30;5.60;;;4.13;;
46713;SDS011;32445;51.376;10.874;2023-05-17T04:41:31;6.93;;;3.20;;
46713;SDS011;32445;51.376;10.874;2023-05-17T04:44:32;3.83;;;2.70;;
46713;SDS011;32445;51.376;10.874;2023-05-17T04:47:32;7.75;;;5.43;;
46713;SDS011;32445;51.376;10.874;2023-05-17T04:50:34;10.90;;;4.72;;
46713;SDS011;32445;51.376;10.874;2023-05-17T04:53:34;7.57;;;4.32;;
46713;SDS011;32445;51.376;10.874;2023-05-17T04:56:35;8.07;;;4.95;;
46713;SDS011;32445;51.376;10.874;2023-05-17T04:59:35;10.60;;;5.65;;
46713;SDS011;32445;51.376;10.874;2023-05-17T05:02:35;10.15;;;4.90;;
46713;SDS011;32445;51.376;10.874;2023-05-17T05:05:36;8.50;;;4.85;;
46713;SDS011;32445;51.376;10.874;2023-05-17T05:08:36;6.35;;;4.25;;
46713;SDS011;32445;51.376;10.874;2023-05-17T05:11:36;10.50;;;5.35;;
46713;SDS011;32445;51.376;10.874;2023-05-17T05:14:37;14.57;;;5.68;;
46713;SDS011;32445;51.376;10.874;2023-05-17T05:17:37;9.90;;;6.30;;
46713;SDS011;32445;51.376;10.874;2023-05-17T05:20:37;9.60;;;6.30;;
46713;SDS011;32445;51.376;10.874;2023-05-17T05:23:38;26.17;;;6.78;;
46713;SDS011;32445;51.376;10.874;2023-05-17T05:26:38;14.35;;;5.75;;
46713;SDS011;32445;51.376;10.874;2023-05-17T05:29:38;10.00;;;5.38;;
46713;SDS011;32445;51.376;10.874;2023-05-17T05:32:38;10.82;;;6.03;;
46713;SDS011;32445;51.376;10.874;2023-05-17T05:35:39;14.50;;;5.03;;
46713;SDS011;32445;51.376;10.874;2023-05-17T05:38:39;11.75;;;5.32;;
46713;SDS011;32445;51.376;10.874;2023-05-17T05:41:40;13.48;;;5.55;;
46713;SDS011;32445;51.376;10.874;2023-05-17T05:44:40;13.38;;;5.40;;
46713;SDS011;32445;51.376;10.874;2023-05-17T05:47:40;7.25;;;4.65;;
46713;SDS011;32445;51.376;10.874;2023-05-17T05:50:41;13.07;;;5.40;;
46713;SDS011;32445;51.376;10.874;2023-05-17T05:53:42;9.23;;;6.03;;
46713;SDS011;32445;51.376;10.874;2023-05-17T05:56:43;6.53;;;5.30;;
46713;SDS011;32445;51.376;10.874;2023-05-17T05:59:43;14.05;;;5.28;;
46713;SDS011;32445;51.376;10.874;2023-05-17T06:02:43;5.45;;;4.55;;
46713;SDS011;32445;51.376;10.874;2023-05-17T06:05:44;10.98;;;4.80;;
46713;SDS011;32445;51.376;10.874;2023-05-17T06:08:44;12.63;;;4.53;;
46713;SDS011;32445;51.376;10.874;2023-05-17T06:11:46;16.08;;;5.10;;
46713;SDS011;32445;51.376;10.874;2023-05-17T06:14:46;12.50;;;5.68;;
46713;SDS011;32445;51.376;10.874;2023-05-17T06:17:46;15.43;;;5.70;;
46713;SDS011;32445;51.376;10.874;2023-05-17T06:20:47;9.77;;;5.32;;
46713;SDS011;32445;51.376;10.874;2023-05-17T06:23:47;12.70;;;6.18;;
46713;SDS011;32445;51.376;10.874;2023-05-17T06:26:47;12.05;;;4.80;;
46713;SDS011;32445;51.376;10.874;2023-05-17T06:29:48;11.02;;;4.97;;
46713;SDS011;32445;51.376;10.874;2023-05-17T06:32:48;9.15;;;4.70;;
46713;SDS011;32445;51.376;10.874;2023-05-17T06:35:48;14.68;;;5.00;;
46713;SDS011;32445;51.376;10.874;2023-05-17T06:38:49;11.75;;;4.72;;
46713;SDS011;32445;51.376;10.874;2023-05-17T06:41:49;10.85;;;4.40;;
46713;SDS011;32445;51.376;10.874;2023-05-17T06:44:49;10.15;;;4.53;;
46713;SDS011;32445;51.376;10.874;2023-05-17T06:47:50;11.05;;;4.70;;
46713;SDS011;32445;51.376;10.874;2023-05-17T06:50:50;8.35;;;4.68;;
46713;SDS011;32445;51.376;10.874;2023-05-17T06:53:51;12.82;;;4.72;;
46713;SDS011;32445;51.376;10.874;2023-05-17T06:56:51;19.65;;;5.85;;
46713;SDS011;32445;51.376;10.874;2023-05-17T06:59:51;7.82;;;4.18;;
46713;SDS011;32445;51.376;10.874;2023-05-17T07:02:51;17.88;;;5.45;;
46713;SDS011;32445;51.376;10.874;2023-05-17T07:05:52;8.50;;;4.30;;
46713;SDS011;32445;51.376;10.874;2023-05-17T07:08:52;11.00;;;4.85;;
46713;SDS011;32445;51.376;10.874;2023-05-17T07:11:53;7.97;;;3.50;;
46713;SDS011;32445;51.376;10.874;2023-05-17T07:14:53;8.38;;;4.22;;
46713;SDS011;32445;51.376;10.874;2023-05-17T07:17:53;7.38;;;4.03;;
46713;SDS011;32445;51.376;10.874;2023-05-17T07:20:54;9.45;;;3.67;;
46713;SDS011;32445;51.376;10.874;2023-05-17T07:23:54;6.75;;;3.63;;
46713;SDS011;32445;51.376;10.874;2023-05-17T07:26:54;7.38;;;3.45;;
46713;SDS011;32445;51.376;10.874;2023-05-17T07:29:55;8.40;;;2.90;;
46713;SDS011;32445;51.376;10.874;2023-05-17T07:32:55;7.93;;;4.07;;
46713;SDS011;32445;51.376;10.874;2023-05-17T07:35:56;5.93;;;3.30;;
46713;SDS011;32445;51.376;10.874;2023-05-17T07:38:56;7.35;;;2.80;;
46713;SDS011;32445;51.376;10.874;2023-05-17T07:41:57;11.37;;;3.97;;
46713;SDS011;32445;51.376;10.874;2023-05-17T07:44:57;7.75;;;3.25;;
46713;SDS011;32445;51.376;10.874;2023-05-17T07:47:58;14.52;;;4.07;;
46713;SDS011;32445;51.376;10.874;2023-05-17T07:50:58;11.10;;;3.67;;
46713;SDS011;32445;51.376;10.874;2023-05-17T07:53:58;17.95;;;3.80;;
46713;SDS011;32445;51.376;10.874;2023-05-17T07:56:58;6.40;;;2.50;;
46713;SDS011;32445;51.376;10.874;2023-05-17T07:59:59;7.57;;;3.03;;
46713;SDS011;32445;51.376;10.874;2023-05-17T08:02:59;12.77;;;3.42;;
46713;SDS011;32445;51.376;10.874;2023-05-17T08:06:00;6.85;;;2.50;;
46713;SDS011;32445;51.376;10.874;2023-05-17T08:09:00;9.52;;;2.88;;
46713;SDS011;32445;51.376;10.874;2023-05-17T08:12:00;4.97;;;2.45;;
46713;SDS011;32445;51.376;10.874;2023-05-17T08:15:01;7.47;;;2.55;;
46713;SDS011;32445;51.376;10.874;2023-05-17T08:18:01;11.20;;;3.85;;
46713;SDS011;32445;51.376;10.874;2023-05-17T08:21:02;8.30;;;2.05;;
46713;SDS011;32445;51.376;10.874;2023-05-17T08:24:02;10.77;;;3.83;;
46713;SDS011;32445;51.376;10.874;2023-05-17T08:27:03;6.82;;;2.72;;
46713;SDS011;32445;51.376;10.874;2023-05-17T08:30:03;8.13;;;2.35;;
46713;SDS011;32445;51.376;10.874;2023-05-17T08:33:04;10.38;;;2.28;;
46713;SDS011;32445;51.376;10.874;2023-05-17T08:36:04;9.35;;;2.33;;
46713;SDS011;32445;51.376;10.874;2023-05-17T08:39:07;6.47;;;2.50;;
46713;SDS011;32445;51.376;10.874;2023-05-17T08:42:07;7.28;;;2.45;;
46713;SDS011;32445;51.376;10.874;2023-05-17T08:45:08;9.07;;;2.13;;
46713;SDS011;32445;51.376;10.874;2023-05-17T08:48:10;13.10;;;2.05;;
46713;SDS011;32445;51.376;10.874;2023-05-17T08:51:10;8.48;;;2.05;;
46713;SDS011;32445;51.376;10.874;2023-05-17T08:54:11;5.28;;;2.00;;
46713;SDS011;32445;51.376;10.874;2023-05-17T08:57:13;7.20;;;2.22;;
46713;SDS011;32445;51.376;10.874;2023-05-17T09:00:18;10.85;;;2.72;;
46713;SDS011;32445;51.376;10.874;2023-05-17T09:03:20;8.18;;;2.33;;
46713;SDS011;32445;51.376;10.874;2023-05-17T09:06:22;7.60;;;3.17;;
46713;SDS011;32445;51.376;10.874;2023-05-17T09:09:23;7.80;;;2.20;;
46713;SDS011;32445;51.376;10.874;2023-05-17T09:12:26;6.28;;;2.72;;
46713;SDS011;32445;51.376;10.874;2023-05-17T09:15:26;7.93;;;2.70;;
46713;SDS011;32445;51.376;10.874;2023-05-17T09:18:30;11.63;;;2.88;;
46713;SDS011;32445;51.376;10.874;2023-05-17T09:21:31;8.43;;;2.40;;
46713;SDS011;32445;51.376;10.874;2023-05-17T09:24:33;6.80;;;2.20;;
46713;SDS011;32445;51.376;10.874;2023-05-17T09:27:34;6.40;;;1.70;;
46713;SDS011;32445;51.376;10.874;2023-05-17T09:30:34;8.63;;;2.55;;
46713;SDS011;32445;51.376;10.874;2023-05-17T09:33:44;12.63;;;2.22;;
46713;SDS011;32445;51.376;10.874;2023-05-17T09:36:45;10.30;;;2.38;;
46713;SDS011;32445;51.376;10.874;2023-05-17T09:39:46;7.43;;;2.43;;
46713;SDS011;32445;51.376;10.874;2023-05-17T09:42:47;9.33;;;3.00;;
46713;SDS011;32445;51.376;10.874;2023-05-17T09:45:53;6.93;;;2.47;;
46713;SDS011;32445;51.376;10.874;2023-05-17T09:48:55;10.10;;;2.72;;
46713;SDS011;32445;51.376;10.874;2023-05-17T09:51:56;10.73;;;2.53;;
46713;SDS011;32445;51.376;10.874;2023-05-17T09:54:57;6.50;;;2.03;;
46713;SDS011;32445;51.376;10.874;2023-05-17T09:58:02;8.98;;;2.78;;
46713;SDS011;32445;51.376;10.874;2023-05-17T10:01:03;5.97;;;1.65;;
46713;SDS011;32445;51.376;10.874;2023-05-17T10:04:05;8.27;;;2.55;;
46713;SDS011;32445;51.376;10.874;2023-05-17T10:07:08;8.02;;;2.00;;
46713;SDS011;32445;51.376;10.874;2023-05-17T10:10:09;4.67;;;1.60;;
46713;SDS011;32445;51.376;10.874;2023-05-17T10:13:12;7.03;;;1.90;;
46713;SDS011;32445;51.376;10.874;2023-05-17T10:16:16;7.50;;;2.10;;
46713;SDS011;32445;51.376;10.874;2023-05-17T10:19:19;8.10;;;3.17;;
46713;SDS011;32445;51.376;10.874;2023-05-17T10:22:20;7.13;;;2.10;;
46713;SDS011;32445;51.376;10.874;2023-05-17T10:25:22;4.53;;;1.70;;
46713;SDS011;32445;51.376;10.874;2023-05-17T10:28:23;9.57;;;2.07;;
46713;SDS011;32445;51.376;10.874;2023-05-17T10:31:29;8.25;;;2.55;;
46713;SDS011;32445;51.376;10.874;2023-05-17T10:34:35;7.57;;;1.60;;
46713;SDS011;32445;51.376;10.874;2023-05-17T10:37:38;6.68;;;1.90;;
46713;SDS011;32445;51.376;10.874;2023-05-17T10:40:39;5.38;;;1.60;;
46713;SDS011;32445;51.376;10.874;2023-05-17T10:43:41;7.00;;;1.83;;
46713;SDS011;32445;51.376;10.874;2023-05-17T10:46:49;9.70;;;2.28;;
46713;SDS011;32445;51.376;10.874;2023-05-17T10:49:54;3.92;;;1.52;;
46713;SDS011;32445;51.376;10.874;2023-05-17T10:52:56;11.67;;;2.23;;
46713;SDS011;32445;51.376;10.874;2023-05-17T10:55:57;5.18;;;2.00;;
46713;SDS011;32445;51.376;10.874;2023-05-17T10:59:14;6.10;;;1.63;;
46713;SDS011;32445;51.376;10.874;2023-05-17T11:02:26;8.52;;;2.25;;
46713;SDS011;32445;51.376;10.874;2023-05-17T11:05:27;9.02;;;1.60;;
46713;SDS011;32445;51.376;10.874;2023-05-17T11:08:28;8.37;;;1.50;;
46713;SDS011;32445;51.376;10.874;2023-05-17T11:11:28;3.43;;;1.83;;
46713;SDS011;32445;51.376;10.874;2023-05-17T11:20:45;23.20;;;2.38;;
46713;SDS011;32445;51.376;10.874;2023-05-17T11:24:05;4.20;;;1.88;;
46713;SDS011;32445;51.376;10.874;2023-05-17T11:27:07;5.80;;;1.80;;
46713;SDS011;32445;51.376;10.874;2023-05-17T11:30:24;7.83;;;2.37;;
46713;SDS011;32445;51.376;10.874;2023-05-17T11:33:42;6.75;;;2.63;;
46713;SDS011;32445;51.376;10.874;2023-05-17T11:36:51;7.50;;;2.22;;
46713;SDS011;32445;51.376;10.874;2023-05-17T11:46:17;8.80;;;2.30;;
46713;SDS011;32445;51.376;10.874;2023-05-17T11:49:19;5.72;;;1.88;;
46713;SDS011;32445;51.376;10.874;2023-05-17T11:52:22;10.80;;;2.78;;
46713;SDS011;32445;51.376;10.874;2023-05-17T11:55:23;9.30;;;2.17;;
46713;SDS011;32445;51.376;10.874;2023-05-17T11:58:24;7.27;;;2.20;;
46713;SDS011;32445;51.376;10.874;2023-05-17T12:01:25;10.15;;;2.72;;
46713;SDS011;32445;51.376;10.874;2023-05-17T12:04:26;5.80;;;1.73;;
46713;SDS011;32445;51.376;10.874;2023-05-17T12:07:26;16.13;;;2.53;;
46713;SDS011;32445;51.376;10.874;2023-05-17T12:10:27;6.50;;;1.87;;
46713;SDS011;32445;51.376;10.874;2023-05-17T12:13:28;7.33;;;1.63;;
46713;SDS011;32445;51.376;10.874;2023-05-17T12:16:29;5.22;;;1.75;;
46713;SDS011;32445;51.376;10.874;2023-05-17T12:19:31;6.10;;;1.92;;
46713;SDS011;32445;51.376;10.874;2023-05-17T12:22:31;4.90;;;1.60;;
46713;SDS011;32445;51.376;10.874;2023-05-17T12:25:32;6.20;;;1.37;;
46713;SDS011;32445;51.376;10.874;2023-05-17T12:28:33;6.67;;;2.27;;
46713;SDS011;32445;51.376;10.874;2023-05-17T12:31:35;7.22;;;2.05;;
46713;SDS011;32445;51.376;10.874;2023-05-17T12:34:39;7.25;;;2.08;;
46713;SDS011;32445;51.376;10.874;2023-05-17T12:37:40;7.40;;;1.88;;
46713;SDS011;32445;51.376;10.874;2023-05-17T12:40:41;5.93;;;2.07;;
46713;SDS011;32445;51.376;10.874;2023-05-17T12:43:45;4.67;;;2.00;;
46713;SDS011;32445;51.376;10.874;2023-05-17T12:46:48;6.82;;;1.83;;
46713;SDS011;32445;51.376;10.874;2023-05-17T12:49:59;5.47;;;1.88;;
46713;SDS011;32445;51.376;10.874;2023-05-17T12:53:06;5.70;;;1.85;;
46713;SDS011;32445;51.376;10.874;2023-05-17T12:56:07;6.28;;;1.83;;
46713;SDS011;32445;51.376;10.874;2023-05-17T12:59:14;7.78;;;2.50;;
46713;SDS011;32445;51.376;10.874;2023-05-17T13:02:20;5.55;;;2.00;;
46713;SDS011;32445;51.376;10.874;2023-05-17T13:05:22;7.53;;;2.10;;
46713;SDS011;32445;51.376;10.874;2023-05-17T13:08:22;4.43;;;1.60;;
46713;SDS011;32445;51.376;10.874;2023-05-17T13:11:23;11.40;;;1.50;;
46713;SDS011;32445;51.376;10.874;2023-05-17T13:17:41;7.63;;;2.15;;
46713;SDS011;32445;51.376;10.874;2023-05-17T13:20:43;8.52;;;2.47;;
46713;SDS011;32445;51.376;10.874;2023-05-17T13:23:45;7.90;;;1.67;;
46713;SDS011;32445;51.376;10.874;2023-05-17T13:26:46;6.57;;;1.65;;
46713;SDS011;32445;51.376;10.874;2023-05-17T13:29:46;5.23;;;1.80;;
46713;SDS011;32445;51.376;10.874;2023-05-17T13:32:46;7.67;;;5.50;;
46713;SDS011;32445;51.376;10.874;2023-05-17T13:35:47;8.33;;;2.13;;
46713;SDS011;32445;51.376;10.874;2023-05-17T13:38:47;6.27;;;1.87;;
46713;SDS011;32445;51.376;10.874;2023-05-17T13:41:47;8.27;;;3.20;;
46713;SDS011;32445;51.376;10.874;2023-05-17T13:44:48;13.40;;;2.20;;
46713;SDS011;32445;51.376;10.874;2023-05-17T13:47:49;8.27;;;2.70;;
46713;SDS011;32445;51.376;10.874;2023-05-17T13:50:49;9.83;;;2.37;;
46713;SDS011;32445;51.376;10.874;2023-05-17T13:53:50;8.37;;;2.03;;
46713;SDS011;32445;51.376;10.874;2023-05-17T13:56:50;6.33;;;2.23;;
46713;SDS011;32445;51.376;10.874;2023-05-17T13:59:51;8.93;;;2.10;;
46713;SDS011;32445;51.376;10.874;2023-05-17T14:02:51;8.70;;;2.13;;
46713;SDS011;32445;51.376;10.874;2023-05-17T14:05:51;10.97;;;2.43;;
46713;SDS011;32445;51.376;10.874;2023-05-17T14:08:53;6.80;;;1.75;;
46713;SDS011;32445;51.376;10.874;2023-05-17T14:11:54;13.27;;;2.28;;
46713;SDS011;32445;51.376;10.874;2023-05-17T14:14:55;6.57;;;1.77;;
46713;SDS011;32445;51.376;10.874;2023-05-17T14:17:56;6.03;;;1.80;;
46713;SDS011;32445;51.376;10.874;2023-05-17T14:20:56;10.57;;;2.20;;
46713;SDS011;32445;51.376;10.874;2023-05-17T14:23:57;9.17;;;2.20;;
46713;SDS011;32445;51.376;10.874;2023-05-17T14:26:57;5.60;;;2.23;;
46713;SDS011;32445;51.376;10.874;2023-05-17T14:29:57;6.00;;;2.27;;
46713;SDS011;32445;51.376;10.874;2023-05-17T14:32:59;8.15;;;1.85;;
46713;SDS011;32445;51.376;10.874;2023-05-17T14:35:59;5.17;;;2.23;;
46713;SDS011;32445;51.376;10.874;2023-05-17T14:39:00;5.23;;;1.30;;
46713;SDS011;32445;51.376;10.874;2023-05-17T14:42:00;4.50;;;2.00;;
46713;SDS011;32445;51.376;10.874;2023-05-17T14:45:01;7.33;;;1.50;;
46713;SDS011;32445;51.376;10.874;2023-05-17T14:48:01;8.33;;;2.53;;
46713;SDS011;32445;51.376;10.874;2023-05-17T14:51:01;18.13;;;3.40;;
46713;SDS011;32445;51.376;10.874;2023-05-17T14:54:02;6.40;;;2.20;;
46713;SDS011;32445;51.376;10.874;2023-05-17T14:57:03;5.80;;;2.03;;
46713;SDS011;32445;51.376;10.874;2023-05-17T15:00:04;6.87;;;1.70;;
46713;SDS011;32445;51.376;10.874;2023-05-17T15:03:09;4.50;;;2.20;;
46713;SDS011;32445;51.376;10.874;2023-05-17T15:06:09;4.97;;;1.77;;
46713;SDS011;32445;51.376;10.874;2023-05-17T15:09:10;8.27;;;1.60;;
46713;SDS011;32445;51.376;10.874;2023-05-17T15:12:12;4.85;;;1.63;;
46713;SDS011;32445;51.376;10.874;2023-05-17T15:15:13;8.90;;;2.23;;
46713;SDS011;32445;51.376;10.874;2023-05-17T15:18:13;12.27;;;1.73;;
46713;SDS011;32445;51.376;10.874;2023-05-17T15:21:14;5.97;;;1.90;;
46713;SDS011;32445;51.376;10.874;2023-05-17T15:24:16;6.95;;;2.15;;
46713;SDS011;32445;51.376;10.874;2023-05-17T15:27:16;3.67;;;1.60;;
46713;SDS011;32445;51.376;10.874;2023-05-17T15:30:17;11.30;;;2.07;;
46713;SDS011;32445;51.376;10.874;2023-05-17T15:33:19;5.50;;;2.50;;
46713;SDS011;32445;51.376;10.874;2023-05-17T15:36:19;5.93;;;1.80;;
46713;SDS011;32445;51.376;10.874;2023-05-17T15:39:20;7.00;;;2.13;;
46713;SDS011;32445;51.376;10.874;2023-05-17T15:42:20;8.37;;;2.07;;
46713;SDS011;32445;51.376;10.874;2023-05-17T15:45:21;3.80;;;2.10;;
46713;SDS011;32445;51.376;10.874;2023-05-17T15:48:21;7.17;;;2.20;;
46713;SDS011;32445;51.376;10.874;2023-05-17T15:51:22;15.38;;;2.88;;
46713;SDS011;32445;51.376;10.874;2023-05-17T15:54:22;7.03;;;1.83;;
46713;SDS011;32445;51.376;10.874;2023-05-17T15:57:23;9.70;;;2.07;;
46713;SDS011;32445;51.376;10.874;2023-05-17T16:00:23;5.70;;;1.77;;
46713;SDS011;32445;51.376;10.874;2023-05-17T16:03:24;5.40;;;1.50;;
46713;SDS011;32445;51.376;10.874;2023-05-17T16:06:24;15.27;;;1.83;;
46713;SDS011;32445;51.376;10.874;2023-05-17T16:09:24;7.80;;;1.93;;
46713;SDS011;32445;51.376;10.874;2023-05-17T16:12:25;4.43;;;1.67;;
46713;SDS011;32445;51.376;10.874;2023-05-17T16:15:25;5.90;;;2.70;;
46713;SDS011;32445;51.376;10.874;2023-05-17T16:18:26;8.13;;;2.37;;
46713;SDS011;32445;51.376;10.874;2023-05-17T16:21:26;6.10;;;1.97;;
46713;SDS011;32445;51.376;10.874;2023-05-17T16:24:26;8.90;;;2.83;;
46713;SDS011;32445;51.376;10.874;2023-05-17T16:27:27;6.77;;;1.87;;
46713;SDS011;32445;51.376;10.874;2023-05-17T16:30:27;7.67;;;2.03;;
46713;SDS011;32445;51.376;10.874;2023-05-17T16:33:28;3.23;;;1.60;;
46713;SDS011;32445;51.376;10.874;2023-05-17T16:36:28;8.10;;;1.97;;
46713;SDS011;32445;51.376;10.874;2023-05-17T16:39:28;4.47;;;2.07;;
46713;SDS011;32445;51.376;10.874;2023-05-17T16:42:29;5.40;;;2.00;;
46713;SDS011;32445;51.376;10.874;2023-05-17T16:45:29;6.60;;;2.03;;
46713;SDS011;32445;51.376;10.874;2023-05-17T16:48:30;4.03;;;1.57;;
46713;SDS011;32445;51.376;10.874;2023-05-17T16:51:30;4.93;;;1.80;;
46713;SDS011;32445;51.376;10.874;2023-05-17T16:54:31;8.67;;;2.37;;
46713;SDS011;32445;51.376;10.874;2023-05-17T17:00:32;4.97;;;2.03;;
46713;SDS011;32445;51.376;10.874;2023-05-17T17:03:33;7.30;;;1.93;;
46713;SDS011;32445;51.376;10.874;2023-05-17T17:06:33;9.97;;;1.90;;
46713;SDS011;32445;51.376;10.874;2023-05-17T17:09:34;9.37;;;1.83;;
46713;SDS011;32445;51.376;10.874;2023-05-17T17:12:34;7.17;;;2.20;;
46713;SDS011;32445;51.376;10.874;2023-05-17T17:15:34;7.03;;;1.83;;
46713;SDS011;32445;51.376;10.874;2023-05-17T17:18:35;5.60;;;2.93;;
46713;SDS011;32445;51.376;10.874;2023-05-17T17:21:35;6.77;;;1.47;;
46713;SDS011;32445;51.376;10.874;2023-05-17T17:24:36;5.87;;;1.87;;
46713;SDS011;32445;51.376;10.874;2023-05-17T17:27:37;6.68;;;1.92;;
46713;SDS011;32445;51.376;10.874;2023-05-17T17:30:37;7.03;;;1.80;;
46713;SDS011;32445;51.376;10.874;2023-05-17T17:33:38;3.17;;;1.63;;
46713;SDS011;32445;51.376;10.874;2023-05-17T17:36:38;4.87;;;1.70;;
46713;SDS011;32445;51.376;10.874;2023-05-17T17:39:39;5.17;;;1.73;;
46713;SDS011;32445;51.376;10.874;2023-05-17T17:42:41;12.82;;;2.15;;
46713;SDS011;32445;51.376;10.874;2023-05-17T17:45:41;4.43;;;1.97;;
46713;SDS011;32445;51.376;10.874;2023-05-17T17:48:41;6.93;;;1.57;;
46713;SDS011;32445;51.376;10.874;2023-05-17T17:51:42;6.53;;;1.43;;
46713;SDS011;32445;51.376;10.874;2023-05-17T17:54:42;7.17;;;1.63;;
46713;SDS011;32445;51.376;10.874;2023-05-17T17:57:42;8.97;;;1.50;;
46713;SDS011;32445;51.376;10.874;2023-05-17T18:00:43;4.50;;;1.43;;
46713;SDS011;32445;51.376;10.874;2023-05-17T18:03:43;5.40;;;1.33;;
46713;SDS011;32445;51.376;10.874;2023-05-17T18:06:43;7.43;;;1.23;;
46713;SDS011;32445;51.376;10.874;2023-05-17T18:09:44;8.75;;;2.42;;
46713;SDS011;32445;51.376;10.874;2023-05-17T18:12:45;4.33;;;1.63;;
46713;SDS011;32445;51.376;10.874;2023-05-17T18:15:45;5.30;;;1.37;;
46713;SDS011;32445;51.376;10.874;2023-05-17T18:18:46;5.60;;;1.20;;
46713;SDS011;32445;51.376;10.874;2023-05-17T18:21:46;6.33;;;1.70;;